sensor_id;sensor_type;location;lat;lon;timestamp;pressure;altitude;pressure_sealevel;temperature;humidity
26839;BME280;40088;51.214;6.786;2023-09-12T00:01:44;101036.81;;;21.14;74.65
26839;BME280;40088;51.214;6.786;2023-09-12T00:11:45;101048.09;;;21.13;74.57
26839;BME280;40088;51.214;6.786;2023-09-12T00:21:45;101033.16;;;21.14;74.46
26839;BME280;40088;51.214;6.786;2023-09-12T00:31:45;100976.91;;;21.13;74.40
26839;BME280;40088;51.214;6.786;2023-09-12T00:41:46;100927.03;;;21.13;74.14
26839;BME280;40088;51.214;6.786;2023-09-12T00:51:48;100958.59;;;21.12;74.54
26839;BME280;40088;51.214;6.786;2023-09-12T01:01:50;100961.13;;;21.14;74.46
26839;BME280;40088;51.214;6.786;2023-09-12T01:11:51;100963.91;;;21.14;74.47
26839;BME280;40088;51.214;6.786;2023-09-12T01:22:34;100970.50;;;21.13;74.57
26839;BME280;40088;51.214;6.786;2023-09-12T01:32:37;101001.84;;;21.13;74.54
26839;BME280;40088;51.214;6.786;2023-09-12T01:42:46;100982.44;;;21.13;74.31
26839;BME280;40088;51.214;6.786;2023-09-12T01:52:48;100959.44;;;21.13;74.68
26839;BME280;40088;51.214;6.786;2023-09-12T02:02:49;100959.44;;;21.13;74.54
26839;BME280;40088;51.214;6.786;2023-09-12T02:12:50;100972.44;;;21.12;74.78
26839;BME280;40088;51.214;6.786;2023-09-12T02:22:50;101012.09;;;21.13;74.82
26839;BME280;40088;51.214;6.786;2023-09-12T02:32:50;100993.75;;;21.12;74.78
26839;BME280;40088;51.214;6.786;2023-09-12T02:42:51;100972.44;;;21.12;74.54
26839;BME280;40088;51.214;6.786;2023-09-12T02:52:51;100953.03;;;21.12;74.42
26839;BME280;40088;51.214;6.786;2023-09-12T03:02:51;100967.75;;;21.13;74.64
26839;BME280;40088;51.214;6.786;2023-09-12T03:12:52;100961.34;;;21.12;74.60
26839;BME280;40088;51.214;6.786;2023-09-12T03:22:52;100946.41;;;21.13;74.69
26839;BME280;40088;51.214;6.786;2023-09-12T03:32:52;100928.09;;;21.12;74.54
26839;BME280;40088;51.214;6.786;2023-09-12T03:42:53;100908.69;;;21.12;74.65
26839;BME280;40088;51.214;6.786;2023-09-12T03:52:54;100904.25;;;21.11;74.73
26839;BME280;40088;51.214;6.786;2023-09-12T04:02:54;100891.22;;;21.12;74.75
26839;BME280;40088;51.214;6.786;2023-09-12T04:12:54;100876.53;;;21.11;74.56
26839;BME280;40088;51.214;6.786;2023-09-12T04:22:54;100874.84;;;21.10;74.59
26839;BME280;40088;51.214;6.786;2023-09-12T04:32:55;100882.91;;;21.12;74.47
26839;BME280;40088;51.214;6.786;2023-09-12T04:42:55;100895.94;;;21.11;74.47
26839;BME280;40088;51.214;6.786;2023-09-12T04:52:55;100880.16;;;21.12;74.85
26839;BME280;40088;51.214;6.786;2023-09-12T05:02:56;100861.81;;;21.11;74.39
26839;BME280;40088;51.214;6.786;2023-09-12T05:12:56;100915.56;;;21.10;74.47
26839;BME280;40088;51.214;6.786;2023-09-12T05:22:56;100941.34;;;21.10;74.87
26839;BME280;40088;51.214;6.786;2023-09-12T05:32:57;100953.28;;;21.11;74.42
26839;BME280;40088;51.214;6.786;2023-09-12T05:42:57;100988.44;;;21.10;74.66
26839;BME280;40088;51.214;6.786;2023-09-12T05:52:57;101112.06;;;21.11;74.68
26839;BME280;40088;51.214;6.786;2023-09-12T06:02:57;100976.50;;;21.10;74.48
26839;BME280;40088;51.214;6.786;2023-09-12T06:12:58;100951.56;;;21.10;74.81
26839;BME280;40088;51.214;6.786;2023-09-12T06:22:58;101001.44;;;21.10;74.95
26839;BME280;40088;51.214;6.786;2023-09-12T06:32:59;100999.53;;;21.10;74.85
26839;BME280;40088;51.214;6.786;2023-09-12T06:42:59;100977.34;;;21.10;74.73
26839;BME280;40088;51.214;6.786;2023-09-12T06:53:00;100980.13;;;21.10;75.09
26839;BME280;40088;51.214;6.786;2023-09-12T07:03:00;100980.13;;;21.10;74.94
26839;BME280;40088;51.214;6.786;2023-09-12T07:13:00;100973.75;;;21.10;75.02
26839;BME280;40088;51.214;6.786;2023-09-12T07:23:01;100960.72;;;21.10;74.80
26839;BME280;40088;51.214;6.786;2023-09-12T07:33:03;100949.66;;;21.10;75.41
26839;BME280;40088;51.214;6.786;2023-09-12T07:43:04;100955.19;;;21.10;75.09
26839;BME280;40088;51.214;6.786;2023-09-12T07:53:05;100966.28;;;21.10;74.99
26839;BME280;40088;51.214;6.786;2023-09-12T08:03:05;100971.81;;;21.10;75.26
26839;BME280;40088;51.214;6.786;2023-09-12T08:13:06;100977.34;;;21.10;75.34
26839;BME280;40088;51.214;6.786;2023-09-12T08:23:06;100960.72;;;21.10;75.21
26839;BME280;40088;51.214;6.786;2023-09-12T08:33:06;100996.75;;;21.10;75.31
26839;BME280;40088;51.214;6.786;2023-09-12T08:43:07;101006.16;;;21.09;75.03
26839;BME280;40088;51.214;6.786;2023-09-12T08:53:07;101024.47;;;21.10;74.99
26839;BME280;40088;51.214;6.786;2023-09-12T09:03:08;101041.09;;;21.10;75.12
26839;BME280;40088;51.214;6.786;2023-09-12T09:13:08;101063.25;;;21.10;74.97
26839;BME280;40088;51.214;6.786;2023-09-12T09:23:10;101060.69;;;21.08;74.87
26839;BME280;40088;51.214;6.786;2023-09-12T09:33:11;101047.72;;;21.09;74.83
26839;BME280;40088;51.214;6.786;2023-09-12T09:43:11;101048.56;;;21.10;74.75
26839;BME280;40088;51.214;6.786;2023-09-12T09:53:14;101033.84;;;21.09;74.91
26839;BME280;40088;51.214;6.786;2023-09-12T10:03:19;101034.69;;;21.10;74.97
26839;BME280;40088;51.214;6.786;2023-09-12T10:13:23;101040.03;;;21.11;74.58
26839;BME280;40088;51.214;6.786;2023-09-12T10:23:34;101030.00;;;21.10;74.79
26839;BME280;40088;51.214;6.786;2023-09-12T10:33:38;101018.06;;;21.10;74.60
26839;BME280;40088;51.214;6.786;2023-09-12T10:43:39;101015.31;;;21.10;74.96
26839;BME280;40088;51.214;6.786;2023-09-12T10:53:48;101021.69;;;21.10;74.71
26839;BME280;40088;51.214;6.786;2023-09-12T11:03:49;101001.22;;;21.11;74.79
26839;BME280;40088;51.214;6.786;2023-09-12T11:14:03;101001.22;;;21.11;74.71
26839;BME280;40088;51.214;6.786;2023-09-12T11:24:04;101027.84;;;21.12;74.45
26839;BME280;40088;51.214;6.786;2023-09-12T11:34:08;101016.78;;;21.12;74.70
26839;BME280;40088;51.214;6.786;2023-09-12T11:44:09;101028.94;;;21.11;74.49
26839;BME280;40088;51.214;6.786;2023-09-12T11:54:09;101025.09;;;21.12;74.78
26839;BME280;40088;51.214;6.786;2023-09-12T12:04:09;101021.25;;;21.13;74.84
26839;BME280;40088;51.214;6.786;2023-09-12T12:14:15;101015.69;;;21.13;74.50
26839;BME280;40088;51.214;6.786;2023-09-12T12:24:15;100998.22;;;21.13;74.48
26839;BME280;40088;51.214;6.786;2023-09-12T12:34:21;100988.84;;;21.14;74.42
26839;BME280;40088;51.214;6.786;2023-09-12T12:44:21;100979.69;;;21.13;74.82
26839;BME280;40088;51.214;6.786;2023-09-12T12:54:22;100966.66;;;21.14;74.73
26839;BME280;40088;51.214;6.786;2023-09-12T13:04:23;100945.56;;;21.13;74.57
26839;BME280;40088;51.214;6.786;2023-09-12T13:14:24;100950.91;;;21.14;74.71
26839;BME280;40088;51.214;6.786;2023-09-12T13:24:30;100937.06;;;21.14;74.42
26839;BME280;40088;51.214;6.786;2023-09-12T13:34:31;100936.00;;;21.15;74.50
26839;BME280;40088;51.214;6.786;2023-09-12T13:44:31;100919.34;;;21.15;74.44
26839;BME280;40088;51.214;6.786;2023-09-12T13:54:31;100909.34;;;21.14;74.44
26839;BME280;40088;51.214;6.786;2023-09-12T14:04:31;100911.03;;;21.15;74.67
26839;BME280;40088;51.214;6.786;2023-09-12T14:14:32;100909.13;;;21.16;74.68
26839;BME280;40088;51.214;6.786;2023-09-12T14:24:32;100898.88;;;21.16;74.40
26839;BME280;40088;51.214;6.786;2023-09-12T14:34:33;100887.81;;;21.16;74.50
26839;BME280;40088;51.214;6.786;2023-09-12T14:44:33;100879.50;;;21.16;74.42
26839;BME280;40088;51.214;6.786;2023-09-12T14:54:33;100881.19;;;21.17;74.75
26839;BME280;40088;51.214;6.786;2023-09-12T15:04:34;100858.16;;;21.17;74.37
26839;BME280;40088;51.214;6.786;2023-09-12T15:14:34;100866.47;;;21.17;74.40
26839;BME280;40088;51.214;6.786;2023-09-12T15:24:35;100851.53;;;21.18;74.65
26839;BME280;40088;51.214;6.786;2023-09-12T15:34:35;100854.31;;;21.18;74.28
26839;BME280;40088;51.214;6.786;2023-09-12T15:44:35;100860.69;;;21.18;74.71
26839;BME280;40088;51.214;6.786;2023-09-12T15:54:35;100852.38;;;21.18;74.34
26839;BME280;40088;51.214;6.786;2023-09-12T16:04:36;100860.69;;;21.18;74.69
26839;BME280;40088;51.214;6.786;2023-09-12T16:14:36;100854.13;;;21.19;74.25
26839;BME280;40088;51.214;6.786;2023-09-12T16:24:36;100861.34;;;21.20;74.48
26839;BME280;40088;51.214;6.786;2023-09-12T16:34:37;100852.19;;;21.20;74.47
26839;BME280;40088;51.214;6.786;2023-09-12T16:44:37;100845.81;;;21.19;74.46
26839;BME280;40088;51.214;6.786;2023-09-12T16:54:38;100858.59;;;21.20;74.35
26839;BME280;40088;51.214;6.786;2023-09-12T17:04:39;100866.91;;;21.20;74.53
26839;BME280;40088;51.214;6.786;2023-09-12T17:14:40;100882.69;;;21.20;74.56
26839;BME280;40088;51.214;6.786;2023-09-12T17:24:41;100889.91;;;21.21;74.36
26839;BME280;40088;51.214;6.786;2023-09-12T17:34:44;100901.84;;;21.21;74.74
26839;BME280;40088;51.214;6.786;2023-09-12T17:44:47;100922.31;;;21.20;74.46
26839;BME280;40088;51.214;6.786;2023-09-12T17:54:47;100921.25;;;21.21;74.53
26839;BME280;40088;51.214;6.786;2023-09-12T18:04:47;100936.19;;;21.20;74.54
26839;BME280;40088;51.214;6.786;2023-09-12T18:14:48;100931.47;;;21.21;74.71
26839;BME280;40088;51.214;6.786;2023-09-12T18:24:48;100940.66;;;21.21;74.45
26839;BME280;40088;51.214;6.786;2023-09-12T18:34:48;100942.34;;;21.22;74.53
26839;BME280;40088;51.214;6.786;2023-09-12T18:44:49;100950.66;;;21.22;74.65
26839;BME280;40088;51.214;6.786;2023-09-12T18:54:49;100950.66;;;21.22;74.51
26839;BME280;40088;51.214;6.786;2023-09-12T19:04:50;100970.06;;;21.22;74.74
26839;BME280;40088;51.214;6.786;2023-09-12T19:14:50;100971.13;;;21.21;74.99
26839;BME280;40088;51.214;6.786;2023-09-12T19:24:50;100995.00;;;21.22;74.56
26839;BME280;40088;51.214;6.786;2023-09-12T19:34:51;100990.53;;;21.21;74.75
26839;BME280;40088;51.214;6.786;2023-09-12T19:44:51;100970.91;;;21.23;75.28
26839;BME280;40088;51.214;6.786;2023-09-12T19:54:52;100909.09;;;21.22;75.07
26839;BME280;40088;51.214;6.786;2023-09-12T20:04:53;100894.38;;;21.22;74.98
26839;BME280;40088;51.214;6.786;2023-09-12T20:14:54;100922.09;;;21.22;75.18
26839;BME280;40088;51.214;6.786;2023-09-12T20:24:55;100924.00;;;21.21;75.20
26839;BME280;40088;51.214;6.786;2023-09-12T20:34:55;100905.47;;;21.22;75.20
26839;BME280;40088;51.214;6.786;2023-09-12T20:44:57;100908.25;;;21.22;75.67
26839;BME280;40088;51.214;6.786;2023-09-12T20:54:58;100912.94;;;21.21;75.54
26839;BME280;40088;51.214;6.786;2023-09-12T21:04:58;100917.63;;;21.21;75.68
26839;BME280;40088;51.214;6.786;2023-09-12T21:14:59;100938.94;;;21.20;75.37
26839;BME280;40088;51.214;6.786;2023-09-12T21:24:59;100960.03;;;21.21;75.66
26839;BME280;40088;51.214;6.786;2023-09-12T21:35:14;100969.22;;;21.22;75.57
26839;BME280;40088;51.214;6.786;2023-09-12T21:45:15;100983.06;;;21.22;75.90
26839;BME280;40088;51.214;6.786;2023-09-12T21:55:15;101010.78;;;21.22;75.59
26839;BME280;40088;51.214;6.786;2023-09-12T22:05:15;100999.91;;;21.20;76.08
26839;BME280;40088;51.214;6.786;2023-09-12T22:15:16;100994.38;;;21.20;75.92
26839;BME280;40088;51.214;6.786;2023-09-12T22:25:17;100991.59;;;21.20;75.97
26839;BME280;40088;51.214;6.786;2023-09-12T22:35:17;100986.06;;;21.20;75.65
26839;BME280;40088;51.214;6.786;2023-09-12T22:45:18;100981.59;;;21.19;75.60
26839;BME280;40088;51.214;6.786;2023-09-12T22:55:18;100988.00;;;21.20;75.46
26839;BME280;40088;51.214;6.786;2023-09-12T23:05:18;100979.69;;;21.20;75.70
26839;BME280;40088;51.214;6.786;2023-09-12T23:15:19;100971.56;;;21.18;75.54
26839;BME280;40088;51.214;6.786;2023-09-12T23:25:19;100968.78;;;21.18;75.54
26839;BME280;40088;51.214;6.786;2023-09-12T23:35:20;100957.69;;;21.18;75.84
26839;BME280;40088;51.214;6.786;2023-09-12T23:45:21;100941.06;;;21.18;75.75
26839;BME280;40088;51.214;6.786;2023-09-12T23:55:21;100941.06;;;21.18;75.80
